Private Wetterstation Sandau
Wetterdaten: Samstag, 20.10.2012
Datum Zeit Temp. A. Feuchte A. Luftdruck Regen Wind Richtung Richtung Taupunkt Windchill
20.10.2012 00:01 11,8 C 88 % 1015,4 hPa 0,0 l/m 1,4 km/h (1 Bft) SO 135 9,9 C 11,8 C
20.10.2012 00:06 11,8 C 88 % 1015,4 hPa 0,0 l/m 0,0 km/h (0 Bft) SO 135 9,9 C 11,8 C
20.10.2012 00:11 11,8 C 89 % 1015,4 hPa 0,0 l/m 2,2 km/h (1 Bft) O-SO 112 10,0 C 11,8 C
20.10.2012 00:16 11,7 C 89 % 1015,5 hPa 0,0 l/m 0,0 km/h (0 Bft) O-SO 112 9,9 C 11,7 C
20.10.2012 00:21 11,6 C 89 % 1015,6 hPa 0,0 l/m 0,0 km/h (0 Bft) O-SO 112 9,8 C 11,6 C
20.10.2012 00:26 11,5 C 89 % 1015,5 hPa 0,0 l/m 0,0 km/h (0 Bft) O-SO 112 9,8 C 11,5 C
20.10.2012 00:31 11,4 C 88 % 1015,6 hPa 0,0 l/m 0,0 km/h (0 Bft) O-SO 112 9,5 C 11,4 C
20.10.2012 00:36 11,3 C 88 % 1015,5 hPa 0,0 l/m 0,0 km/h (0 Bft) O-SO 112 9,4 C 11,3 C
20.10.2012 00:41 11,3 C 88 % 1015,5 hPa 0,0 l/m 0,0 km/h (0 Bft) SO 135 9,4 C 11,3 C
20.10.2012 00:46 11,2 C 89 % 1015,6 hPa 0,0 l/m 0,0 km/h (0 Bft) SO 135 9,5 C 11,2 C
20.10.2012 00:51 11,2 C 89 % 1015,4 hPa 0,0 l/m 0,0 km/h (0 Bft) SO 135 9,5 C 11,2 C
20.10.2012 00:56 11,1 C 89 % 1015,4 hPa 0,0 l/m 0,0 km/h (0 Bft) SO 135 9,4 C 11,1 C
20.10.2012 01:01 11,1 C 89 % 1015,4 hPa 0,0 l/m 0,0 km/h (0 Bft) SO 135 9,4 C 11,1 C
20.10.2012 01:06 11,1 C 89 % 1015,5 hPa 0,0 l/m 0,0 km/h (0 Bft) SO 135 9,4 C 11,1 C
20.10.2012 01:11 11,1 C 89 % 1015,5 hPa 0,0 l/m 0,0 km/h (0 Bft) SO 135 9,4 C 11,1 C
20.10.2012 01:16 11,1 C 89 % 1015,6 hPa 0,0 l/m 1,4 km/h (1 Bft) SO 135 9,4 C 11,1 C
20.10.2012 01:21 11,1 C 89 % 1015,7 hPa 0,0 l/m 0,0 km/h (0 Bft) SO 135 9,4 C 11,1 C
20.10.2012 01:26 11,0 C 89 % 1015,7 hPa 0,0 l/m 0,0 km/h (0 Bft) SO 135 9,3 C 11,0 C
20.10.2012 01:31 10,9 C 89 % 1015,7 hPa 0,0 l/m 0,0 km/h (0 Bft) SO 135 9,2 C 10,9 C
20.10.2012 01:36 10,9 C 90 % 1015,7 hPa 0,0 l/m 1,4 km/h (1 Bft) SO 135 9,3 C 10,9 C
20.10.2012 01:41 10,9 C 90 % 1015,7 hPa 0,0 l/m 0,0 km/h (0 Bft) SO 135 9,3 C 10,9 C
20.10.2012 01:46 10,8 C 90 % 1015,7 hPa 0,0 l/m 0,0 km/h (0 Bft) SO 135 9,2 C 10,8 C
20.10.2012 01:51 10,8 C 90 % 1015,8 hPa 0,0 l/m 0,0 km/h (0 Bft) SO 135 9,2 C 10,8 C
20.10.2012 01:56 10,8 C 90 % 1015,8 hPa 0,0 l/m 0,0 km/h (0 Bft) SO 135 9,2 C 10,8 C
20.10.2012 02:01 10,8 C 90 % 1015,8 hPa 0,0 l/m 0,0 km/h (0 Bft) SO 135 9,2 C 10,8 C
20.10.2012 02:06 10,7 C 90 % 1015,9 hPa 0,0 l/m 0,0 km/h (0 Bft) SO 135 9,1 C 10,7 C
20.10.2012 02:11 10,6 C 90 % 1016,0 hPa 0,0 l/m 0,0 km/h (0 Bft) SO 135 9,0 C 10,6 C
20.10.2012 02:16 10,6 C 90 % 1016,0 hPa 0,0 l/m 1,8 km/h (1 Bft) SO 135 9,0 C 10,6 C
20.10.2012 02:21 10,5 C 90 % 1016,0 hPa 0,0 l/m 1,8 km/h (1 Bft) SO 135 8,9 C 10,5 C
20.10.2012 02:26 10,5 C 91 % 1016,0 hPa 0,0 l/m 0,0 km/h (0 Bft) SO 135 9,1 C 10,5 C
20.10.2012 02:31 10,4 C 91 % 1016,0 hPa 0,0 l/m 0,0 km/h (0 Bft) SO 135 9,0 C 10,4 C
20.10.2012 02:36 10,4 C 91 % 1016,1 hPa 0,0 l/m 0,0 km/h (0 Bft) SO 135 9,0 C 10,4 C
20.10.2012 02:41 10,4 C 90 % 1016,2 hPa 0,0 l/m 0,0 km/h (0 Bft) SO 135 8,8 C 10,4 C
20.10.2012 02:46 10,3 C 90 % 1016,1 hPa 0,0 l/m 0,0 km/h (0 Bft) SO 135 8,7 C 10,3 C
20.10.2012 02:51 10,2 C 90 % 1016,1 hPa 0,0 l/m 0,0 km/h (0 Bft) SO 135 8,6 C 10,2 C
20.10.2012 02:56 10,2 C 90 % 1015,9 hPa 0,0 l/m 1,1 km/h (1 Bft) SO 135 8,6 C 10,2 C
20.10.2012 03:01 10,1 C 90 % 1015,8 hPa 0,0 l/m 0,0 km/h (0 Bft) SO 135 8,5 C 10,1 C
20.10.2012 03:06 10,1 C 90 % 1015,7 hPa 0,0 l/m 0,0 km/h (0 Bft) SO 135 8,5 C 10,1 C
20.10.2012 03:11 10,2 C 90 % 1015,8 hPa 0,0 l/m 0,0 km/h (0 Bft) SO 135 8,6 C 10,2 C
20.10.2012 03:16 10,2 C 90 % 1015,7 hPa 0,0 l/m 0,0 km/h (0 Bft) SO 135 8,6 C 10,2 C
20.10.2012 03:21 10,1 C 90 % 1015,8 hPa 0,0 l/m 0,0 km/h (0 Bft) SO 135 8,5 C 10,1 C
20.10.2012 03:26 10,1 C 90 % 1015,8 hPa 0,0 l/m 0,0 km/h (0 Bft) SO 135 8,5 C 10,1 C
20.10.2012 03:31 9,9 C 90 % 1015,8 hPa 0,0 l/m 0,0 km/h (0 Bft) SO 135 8,3 C 9,9 C
20.10.2012 03:36 9,9 C 90 % 1016,0 hPa 0,0 l/m 0,0 km/h (0 Bft) SO 135 8,3 C 9,9 C
20.10.2012 03:41 9,9 C 91 % 1016,0 hPa 0,0 l/m 0,0 km/h (0 Bft) SO 135 8,5 C 9,9 C
20.10.2012 03:46 9,9 C 91 % 1016,0 hPa 0,0 l/m 0,0 km/h (0 Bft) SO 135 8,5 C 9,9 C
20.10.2012 03:51 9,9 C 91 % 1016,1 hPa 0,0 l/m 0,0 km/h (0 Bft) SO 135 8,5 C 9,9 C
20.10.2012 03:56 9,9 C 91 % 1016,1 hPa 0,0 l/m 0,0 km/h (0 Bft) SO 135 8,5 C 9,9 C
20.10.2012 04:01 9,8 C 91 % 1016,1 hPa 0,0 l/m 0,0 km/h (0 Bft) SO 135 8,4 C 9,8 C
20.10.2012 04:06 9,8 C 91 % 1016,0 hPa 0,0 l/m 0,0 km/h (0 Bft) SO 135 8,4 C 9,8 C
20.10.2012 04:11 9,8 C 91 % 1015,9 hPa 0,0 l/m 0,0 km/h (0 Bft) SO 135 8,4 C 9,8 C
20.10.2012 04:16 9,7 C 91 % 1016,0 hPa 0,0 l/m 0,0 km/h (0 Bft) SO 135 8,3 C 9,7 C
20.10.2012 04:21 9,6 C 91 % 1016,0 hPa 0,0 l/m 0,0 km/h (0 Bft) SO 135 8,2 C 9,6 C
20.10.2012 04:26 9,6 C 91 % 1016,1 hPa 0,0 l/m 0,0 km/h (0 Bft) SO 135 8,2 C 9,6 C
20.10.2012 04:31 9,6 C 91 % 1016,0 hPa 0,0 l/m 0,0 km/h (0 Bft) SO 135 8,2 C 9,6 C
20.10.2012 04:36 9,6 C 91 % 1016,0 hPa 0,0 l/m 1,1 km/h (1 Bft) SO 135 8,2 C 9,6 C
20.10.2012 04:41 9,6 C 91 % 1016,0 hPa 0,0 l/m 0,0 km/h (0 Bft) SO 135 8,2 C 9,6 C
20.10.2012 04:46 9,6 C 91 % 1016,0 hPa 0,0 l/m 0,0 km/h (0 Bft) SO 135 8,2 C 9,6 C
20.10.2012 04:51 9,6 C 91 % 1016,0 hPa 0,0 l/m 1,1 km/h (1 Bft) O-SO 112 8,2 C 9,6 C
20.10.2012 04:56 9,8 C 91 % 1015,9 hPa 0,0 l/m 1,8 km/h (1 Bft) SO 135 8,4 C 9,8 C
20.10.2012 05:01 9,6 C 91 % 1016,0 hPa 0,0 l/m 0,0 km/h (0 Bft) SO 135 8,2 C 9,6 C
20.10.2012 05:06 9,6 C 92 % 1016,0 hPa 0,0 l/m 0,0 km/h (0 Bft) SO 135 8,4 C 9,6 C
20.10.2012 05:11 9,5 C 92 % 1016,2 hPa 0,0 l/m 0,0 km/h (0 Bft) S-SO 157 8,3 C 9,5 C
20.10.2012 05:16 9,5 C 92 % 1016,2 hPa 0,0 l/m 0,0 km/h (0 Bft) SO 135 8,3 C 9,5 C
20.10.2012 05:21 9,4 C 92 % 1016,1 hPa 0,0 l/m 0,0 km/h (0 Bft) SO 135 8,2 C 9,4 C
20.10.2012 05:26 9,4 C 92 % 1016,2 hPa 0,0 l/m 3,2 km/h (1 Bft) SO 135 8,2 C 9,4 C
20.10.2012 05:31 9,5 C 92 % 1016,1 hPa 0,0 l/m 1,4 km/h (1 Bft) SO 135 8,3 C 9,5 C
20.10.2012 05:36 9,5 C 92 % 1016,1 hPa 0,0 l/m 2,2 km/h (1 Bft) O-SO 112 8,3 C 9,5 C
20.10.2012 05:41 9,5 C 92 % 1016,0 hPa 0,0 l/m 0,0 km/h (0 Bft) O-SO 112 8,3 C 9,5 C
20.10.2012 05:46 9,5 C 92 % 1016,1 hPa 0,0 l/m 0,0 km/h (0 Bft) O-SO 112 8,3 C 9,5 C
20.10.2012 05:51 9,5 C 92 % 1016,0 hPa 0,0 l/m 3,2 km/h (1 Bft) O-SO 112 8,3 C 9,5 C
20.10.2012 05:56 9,5 C 92 % 1016,1 hPa 0,0 l/m 1,4 km/h (1 Bft) O-SO 112 8,3 C 9,5 C
20.10.2012 06:01 9,5 C 92 % 1016,2 hPa 0,0 l/m 3,2 km/h (1 Bft) O-SO 112 8,3 C 9,5 C
20.10.2012 06:06 9,5 C 92 % 1016,1 hPa 0,0 l/m 3,6 km/h (1 Bft) O-SO 112 8,3 C 9,5 C
20.10.2012 06:11 9,5 C 92 % 1016,2 hPa 0,0 l/m 2,5 km/h (1 Bft) O-SO 112 8,3 C 9,5 C
20.10.2012 06:16 9,4 C 92 % 1016,2 hPa 0,0 l/m 3,6 km/h (1 Bft) SO 135 8,2 C 9,4 C
20.10.2012 06:21 9,4 C 92 % 1016,2 hPa 0,0 l/m 6,8 km/h (2 Bft) SO 135 8,2 C 8,6 C
20.10.2012 06:26 9,3 C 92 % 1016,4 hPa 0,0 l/m 0,0 km/h (0 Bft) SO 135 8,1 C 9,3 C
20.10.2012 06:31 9,2 C 92 % 1016,4 hPa 0,0 l/m 0,0 km/h (0 Bft) SO 135 8,0 C 9,2 C
20.10.2012 06:36 9,1 C 92 % 1016,4 hPa 0,0 l/m 1,4 km/h (1 Bft) SO 135 7,9 C 9,1 C
20.10.2012 06:41 9,1 C 92 % 1016,4 hPa 0,0 l/m 1,8 km/h (1 Bft) SO 135 7,9 C 9,1 C
20.10.2012 06:46 9,1 C 92 % 1016,4 hPa 0,0 l/m 0,0 km/h (0 Bft) SO 135 7,9 C 9,1 C
20.10.2012 06:51 9,0 C 92 % 1016,4 hPa 0,0 l/m 0,0 km/h (0 Bft) O-SO 112 7,8 C 9,0 C
20.10.2012 06:56 8,9 C 92 % 1016,4 hPa 0,0 l/m 1,4 km/h (1 Bft) SO 135 7,7 C 8,9 C
20.10.2012 07:01 8,9 C 92 % 1016,4 hPa 0,0 l/m 0,0 km/h (0 Bft) SO 135 7,7 C 8,9 C
20.10.2012 07:06 8,9 C 92 % 1016,5 hPa 0,0 l/m 0,0 km/h (0 Bft) SO 135 7,7 C 8,9 C
20.10.2012 07:11 8,8 C 92 % 1016,4 hPa 0,0 l/m 1,4 km/h (1 Bft) SO 135 7,6 C 8,8 C
20.10.2012 07:16 8,8 C 92 % 1016,3 hPa 0,0 l/m 0,0 km/h (0 Bft) S-SO 157 7,6 C 8,8 C
20.10.2012 07:21 8,7 C 92 % 1016,4 hPa 0,0 l/m 1,4 km/h (1 Bft) SO 135 7,5 C 8,7 C
20.10.2012 07:26 8,7 C 92 % 1016,3 hPa 0,0 l/m 0,0 km/h (0 Bft) SO 135 7,5 C 8,7 C
20.10.2012 07:31 8,6 C 92 % 1016,4 hPa 0,0 l/m 0,0 km/h (0 Bft) SO 135 7,4 C 8,6 C
20.10.2012 07:36 8,6 C 92 % 1016,3 hPa 0,0 l/m 0,0 km/h (0 Bft) O-SO 112 7,4 C 8,6 C
20.10.2012 07:41 8,6 C 92 % 1016,4 hPa 0,0 l/m 0,0 km/h (0 Bft) SO 135 7,4 C 8,6 C
20.10.2012 07:46 8,5 C 92 % 1016,5 hPa 0,0 l/m 0,0 km/h (0 Bft) SO 135 7,3 C 8,5 C
20.10.2012 07:51 8,4 C 92 % 1016,5 hPa 0,0 l/m 0,0 km/h (0 Bft) O-SO 112 7,2 C 8,4 C
20.10.2012 07:56 8,4 C 92 % 1016,6 hPa 0,0 l/m 0,0 km/h (0 Bft) O-SO 112 7,2 C 8,4 C
20.10.2012 08:01 8,4 C 92 % 1016,8 hPa 0,0 l/m 0,0 km/h (0 Bft) SO 135 7,2 C 8,4 C
20.10.2012 08:06 8,4 C 92 % 1016,9 hPa 0,0 l/m 2,2 km/h (1 Bft) S-SO 157 7,2 C 8,4 C
20.10.2012 08:11 8,4 C 92 % 1016,9 hPa 0,0 l/m 1,4 km/h (1 Bft) SO 135 7,2 C 8,4 C
20.10.2012 08:16 8,4 C 92 % 1017,0 hPa 0,0 l/m 0,0 km/h (0 Bft) SO 135 7,2 C 8,4 C
20.10.2012 08:21 8,4 C 92 % 1017,2 hPa 0,0 l/m 0,0 km/h (0 Bft) SO 135 7,2 C 8,4 C
20.10.2012 08:26 8,5 C 92 % 1017,2 hPa 0,0 l/m 0,0 km/h (0 Bft) SO 135 7,3 C 8,5 C
20.10.2012 08:31 8,6 C 92 % 1017,3 hPa 0,0 l/m 1,4 km/h (1 Bft) SO 135 7,4 C 8,6 C
20.10.2012 08:36 8,6 C 92 % 1017,4 hPa 0,0 l/m 3,6 km/h (1 Bft) SO 135 7,4 C 8,6 C
20.10.2012 08:41 8,8 C 93 % 1017,4 hPa 0,0 l/m 2,2 km/h (1 Bft) S-SO 157 7,7 C 8,8 C
20.10.2012 08:46 8,9 C 93 % 1017,6 hPa 0,0 l/m 2,9 km/h (1 Bft) S-SO 157 7,8 C 8,9 C
20.10.2012 08:51 9,1 C 93 % 1017,5 hPa 0,0 l/m 2,2 km/h (1 Bft) S-SO 157 8,0 C 9,1 C
20.10.2012 08:56 9,3 C 93 % 1017,6 hPa 0,0 l/m 0,0 km/h (0 Bft) SO 135 8,2 C 9,3 C
20.10.2012 09:01 9,4 C 93 % 1017,7 hPa 0,0 l/m 0,0 km/h (0 Bft) S-SO 157 8,3 C 9,4 C
20.10.2012 09:06 9,6 C 93 % 1017,8 hPa 0,0 l/m 1,4 km/h (1 Bft) S-SO 157 8,5 C 9,6 C
20.10.2012 09:11 9,8 C 93 % 1017,7 hPa 0,0 l/m 2,5 km/h (1 Bft) SO 135 8,7 C 9,8 C
20.10.2012 09:16 9,8 C 93 % 1017,7 hPa 0,0 l/m 0,0 km/h (0 Bft) SO 135 8,7 C 9,8 C
20.10.2012 09:21 9,9 C 93 % 1017,8 hPa 0,0 l/m 1,4 km/h (1 Bft) SO 135 8,8 C 9,9 C
20.10.2012 09:26 9,9 C 93 % 1017,8 hPa 0,0 l/m 3,6 km/h (1 Bft) SO 135 8,8 C 9,9 C
20.10.2012 09:31 10,0 C 92 % 1017,8 hPa 0,0 l/m 2,2 km/h (1 Bft) SO 135 8,8 C 10,0 C
20.10.2012 09:36 10,1 C 93 % 1017,9 hPa 0,0 l/m 0,0 km/h (0 Bft) SO 135 9,0 C 10,1 C
20.10.2012 09:41 10,3 C 93 % 1018,1 hPa 0,0 l/m 0,0 km/h (0 Bft) SO 135 9,2 C 10,3 C
20.10.2012 09:46 10,5 C 93 % 1018,2 hPa 0,0 l/m 0,0 km/h (0 Bft) SO 135 9,4 C 10,5 C
20.10.2012 09:51 10,8 C 93 % 1018,3 hPa 0,0 l/m 0,0 km/h (0 Bft) S-SW 202 9,7 C 10,8 C
20.10.2012 09:56 10,9 C 93 % 1018,3 hPa 0,0 l/m 5,8 km/h (2 Bft) S 180 9,8 C 10,9 C
20.10.2012 10:01 11,3 C 93 % 1018,3 hPa 0,0 l/m 3,6 km/h (1 Bft) S-SO 157 10,2 C 11,3 C
20.10.2012 10:06 11,6 C 93 % 1018,4 hPa 0,0 l/m 6,1 km/h (2 Bft) SW 225 10,5 C 11,6 C
20.10.2012 10:11 11,9 C 92 % 1018,4 hPa 0,0 l/m 2,5 km/h (1 Bft) S-SO 157 10,6 C 11,9 C
20.10.2012 10:16 12,1 C 92 % 1018,6 hPa 0,0 l/m 3,6 km/h (1 Bft) S-SO 157 10,8 C 12,1 C
20.10.2012 10:21 12,4 C 92 % 1018,5 hPa 0,0 l/m 2,9 km/h (1 Bft) SO 135 11,1 C 12,4 C
20.10.2012 10:26 12,6 C 92 % 1018,6 hPa 0,0 l/m 1,8 km/h (1 Bft) S-SO 157 11,3 C 12,6 C
20.10.2012 10:31 12,8 C 91 % 1018,5 hPa 0,0 l/m 4,0 km/h (1 Bft) S-SO 157 11,4 C 12,8 C
20.10.2012 10:36 13,0 C 90 % 1018,5 hPa 0,0 l/m 3,6 km/h (1 Bft) S-SO 157 11,4 C 13,0 C
20.10.2012 10:41 13,2 C 90 % 1018,3 hPa 0,0 l/m 0,0 km/h (0 Bft) SO 135 11,6 C 13,2 C
20.10.2012 10:46 13,3 C 89 % 1018,2 hPa 0,0 l/m 1,8 km/h (1 Bft) O-SO 112 11,5 C 13,3 C
20.10.2012 10:51 13,6 C 89 % 1018,4 hPa 0,0 l/m 0,0 km/h (0 Bft) O-SO 112 11,8 C 13,6 C
20.10.2012 10:56 13,8 C 88 % 1018,4 hPa 0,0 l/m 0,0 km/h (0 Bft) SO 135 11,8 C 13,8 C
20.10.2012 11:01 13,9 C 88 % 1018,5 hPa 0,0 l/m 3,6 km/h (1 Bft) SO 135 11,9 C 13,9 C
20.10.2012 11:06 14,1 C 88 % 1018,4 hPa 0,0 l/m 0,0 km/h (0 Bft) S 180 12,1 C 14,1 C
20.10.2012 11:11 14,3 C 87 % 1018,5 hPa 0,0 l/m 0,0 km/h (0 Bft) SO 135 12,2 C 14,3 C
20.10.2012 11:16 14,5 C 87 % 1018,6 hPa 0,0 l/m 4,0 km/h (1 Bft) S-SW 202 12,4 C 14,5 C
20.10.2012 11:21 14,7 C 86 % 1018,5 hPa 0,0 l/m 1,1 km/h (1 Bft) S-SO 157 12,4 C 14,7 C
20.10.2012 11:26 14,9 C 86 % 1018,6 hPa 0,0 l/m 1,4 km/h (1 Bft) S-SW 202 12,6 C 14,9 C
20.10.2012 11:31 15,1 C 84 % 1018,6 hPa 0,0 l/m 5,8 km/h (2 Bft) S-SW 202 12,4 C 15,1 C
20.10.2012 11:36 15,4 C 83 % 1018,7 hPa 0,0 l/m 2,2 km/h (1 Bft) S-SW 202 12,5 C 15,4 C
20.10.2012 11:41 15,6 C 82 % 1018,6 hPa 0,0 l/m 3,2 km/h (1 Bft) S 180 12,5 C 15,6 C
20.10.2012 11:46 15,9 C 81 % 1018,7 hPa 0,0 l/m 2,9 km/h (1 Bft) S-SO 157 12,6 C 15,9 C
20.10.2012 11:51 16,1 C 80 % 1018,7 hPa 0,0 l/m 4,7 km/h (1 Bft) SW 225 12,6 C 16,1 C
20.10.2012 11:56 16,5 C 79 % 1018,8 hPa 0,0 l/m 10,1 km/h (2 Bft) S-SW 202 12,8 C 16,5 C
20.10.2012 12:01 16,8 C 78 % 1018,7 hPa 0,0 l/m 6,8 km/h (2 Bft) S-SW 202 12,9 C 16,8 C
20.10.2012 12:06 16,9 C 77 % 1018,6 hPa 0,0 l/m 6,5 km/h (2 Bft) S-SW 202 12,8 C 16,9 C
20.10.2012 12:11 17,1 C 75 % 1018,6 hPa 0,0 l/m 6,1 km/h (2 Bft) W-SW 247 12,6 C 17,1 C
20.10.2012 12:16 17,4 C 75 % 1018,6 hPa 0,0 l/m 5,0 km/h (1 Bft) S-SO 157 12,9 C 17,4 C
20.10.2012 12:21 17,6 C 74 % 1018,6 hPa 0,0 l/m 5,0 km/h (1 Bft) SW 225 12,9 C 17,6 C
20.10.2012 12:26 17,9 C 73 % 1018,6 hPa 0,0 l/m 1,1 km/h (1 Bft) O-SO 112 13,0 C 17,9 C
20.10.2012 12:31 18,1 C 73 % 1018,6 hPa 0,0 l/m 2,9 km/h (1 Bft) SO 135 13,2 C 18,1 C
20.10.2012 12:36 18,1 C 73 % 1018,6 hPa 0,0 l/m 2,9 km/h (1 Bft) S-SW 202 13,2 C 18,1 C
20.10.2012 12:41 18,3 C 72 % 1018,4 hPa 0,0 l/m 2,2 km/h (1 Bft) S 180 13,2 C 18,3 C
20.10.2012 12:46 18,5 C 71 % 1018,4 hPa 0,0 l/m 4,0 km/h (1 Bft) W-SW 247 13,1 C 18,5 C
20.10.2012 12:51 18,8 C 71 % 1018,3 hPa 0,0 l/m 6,8 km/h (2 Bft) S-SO 157 13,4 C 18,8 C
20.10.2012 12:56 18,9 C 69 % 1018,3 hPa 0,0 l/m 1,8 km/h (1 Bft) S-SO 157 13,1 C 18,9 C
20.10.2012 13:01 19,1 C 69 % 1018,3 hPa 0,0 l/m 4,0 km/h (1 Bft) S 180 13,3 C 19,1 C
20.10.2012 13:06 19,3 C 68 % 1018,4 hPa 0,0 l/m 6,8 km/h (2 Bft) S 180 13,2 C 19,3 C
20.10.2012 13:11 19,4 C 67 % 1018,4 hPa 0,0 l/m 9,0 km/h (2 Bft) W-SW 247 13,1 C 19,4 C
20.10.2012 13:16 19,5 C 67 % 1018,3 hPa 0,0 l/m 4,3 km/h (1 Bft) S-SW 202 13,2 C 19,5 C
20.10.2012 13:21 19,7 C 66 % 1018,4 hPa 0,0 l/m 4,3 km/h (1 Bft) S-SW 202 13,2 C 19,7 C
20.10.2012 13:26 19,8 C 66 % 1018,4 hPa 0,0 l/m 3,2 km/h (1 Bft) SW 225 13,3 C 19,8 C
20.10.2012 13:31 19,9 C 65 % 1018,3 hPa 0,0 l/m 0,0 km/h (0 Bft) S-SW 202 13,1 C 19,9 C
20.10.2012 13:36 20,1 C 65 % 1018,2 hPa 0,0 l/m 4,0 km/h (1 Bft) S-SW 202 13,3 C 20,1 C
20.10.2012 13:41 20,2 C 65 % 1018,1 hPa 0,0 l/m 4,0 km/h (1 Bft) S-SW 202 13,4 C 20,2 C
20.10.2012 13:46 20,4 C 65 % 1018,1 hPa 0,0 l/m 3,2 km/h (1 Bft) S 180 13,6 C 20,4 C
20.10.2012 13:51 20,6 C 64 % 1018,2 hPa 0,0 l/m 0,0 km/h (0 Bft) S-SW 202 13,5 C 20,6 C
20.10.2012 13:56 20,8 C 64 % 1018,0 hPa 0,0 l/m 3,2 km/h (1 Bft) S-SW 202 13,7 C 20,8 C
20.10.2012 14:01 20,9 C 63 % 1017,9 hPa 0,0 l/m 4,0 km/h (1 Bft) S-SW 202 13,6 C 20,9 C
20.10.2012 14:06 21,1 C 63 % 1017,9 hPa 0,0 l/m 5,4 km/h (1 Bft) S 180 13,8 C 21,1 C
20.10.2012 14:11 21,1 C 63 % 1018,0 hPa 0,0 l/m 7,6 km/h (2 Bft) S-SW 202 13,8 C 21,1 C
20.10.2012 14:16 21,1 C 63 % 1018,1 hPa 0,0 l/m 5,0 km/h (1 Bft) S-SO 157 13,8 C 21,1 C
20.10.2012 14:21 21,2 C 63 % 1018,0 hPa 0,0 l/m 2,5 km/h (1 Bft) S-SO 157 13,9 C 21,2 C
20.10.2012 14:26 21,3 C 63 % 1018,0 hPa 0,0 l/m 4,0 km/h (1 Bft) S-SW 202 14,0 C 21,3 C
20.10.2012 14:31 21,3 C 62 % 1017,9 hPa 0,0 l/m 5,0 km/h (1 Bft) S 180 13,7 C 21,3 C
20.10.2012 14:36 21,3 C 62 % 1017,8 hPa 0,0 l/m 2,2 km/h (1 Bft) S 180 13,7 C 21,3 C
20.10.2012 14:41 21,5 C 62 % 1017,8 hPa 0,0 l/m 4,0 km/h (1 Bft) W-SW 247 13,9 C 21,5 C
20.10.2012 14:46 21,6 C 61 % 1018,1 hPa 0,0 l/m 5,0 km/h (1 Bft) S 180 13,7 C 21,6 C
20.10.2012 14:51 21,6 C 61 % 1018,2 hPa 0,0 l/m 2,2 km/h (1 Bft) S 180 13,7 C 21,6 C
20.10.2012 14:56 21,5 C 61 % 1018,1 hPa 0,0 l/m 4,0 km/h (1 Bft) S 180 13,7 C 21,5 C
20.10.2012 15:01 21,4 C 61 % 1018,2 hPa 0,0 l/m 9,7 km/h (2 Bft) W-SW 247 13,6 C 21,4 C
20.10.2012 15:06 21,4 C 61 % 1018,2 hPa 0,0 l/m 5,4 km/h (1 Bft) S 180 13,6 C 21,4 C
20.10.2012 15:11 21,5 C 62 % 1018,0 hPa 0,0 l/m 6,1 km/h (2 Bft) SW 225 13,9 C 21,5 C
20.10.2012 15:16 21,6 C 61 % 1018,2 hPa 0,0 l/m 5,4 km/h (1 Bft) S 180 13,7 C 21,6 C
20.10.2012 15:21 21,8 C 61 % 1018,3 hPa 0,0 l/m 3,2 km/h (1 Bft) W-SW 247 13,9 C 21,8 C
20.10.2012 15:26 21,9 C 60 % 1018,3 hPa 0,0 l/m 3,6 km/h (1 Bft) W 270 13,8 C 21,9 C
20.10.2012 15:31 22,1 C 60 % 1018,4 hPa 0,0 l/m 1,4 km/h (1 Bft) W-NW 292 14,0 C 22,1 C
20.10.2012 15:36 22,1 C 60 % 1018,5 hPa 0,0 l/m 3,2 km/h (1 Bft) SW 225 14,0 C 22,1 C
20.10.2012 15:41 22,3 C 60 % 1018,5 hPa 0,0 l/m 3,6 km/h (1 Bft) W-SW 247 14,2 C 22,3 C
20.10.2012 15:46 22,3 C 60 % 1018,4 hPa 0,0 l/m 1,8 km/h (1 Bft) W 270 14,2 C 22,3 C
20.10.2012 15:51 22,4 C 61 % 1018,3 hPa 0,0 l/m 8,6 km/h (2 Bft) W 270 14,5 C 22,4 C
20.10.2012 15:56 22,4 C 61 % 1018,1 hPa 0,0 l/m 0,0 km/h (0 Bft) W 270 14,5 C 22,4 C
20.10.2012 16:01 22,4 C 61 % 1018,0 hPa 0,0 l/m 0,0 km/h (0 Bft) S-SW 202 14,5 C 22,4 C
20.10.2012 16:06 22,3 C 61 % 1018,0 hPa 0,0 l/m 0,0 km/h (0 Bft) S-SW 202 14,4 C 22,3 C
20.10.2012 16:11 22,2 C 61 % 1018,0 hPa 0,0 l/m 0,0 km/h (0 Bft) W 270 14,3 C 22,2 C
20.10.2012 16:16 22,1 C 61 % 1018,1 hPa 0,0 l/m 1,4 km/h (1 Bft) W 270 14,2 C 22,1 C
20.10.2012 16:21 22,1 C 61 % 1018,2 hPa 0,0 l/m 0,0 km/h (0 Bft) W 270 14,2 C 22,1 C
20.10.2012 16:26 21,9 C 62 % 1018,2 hPa 0,0 l/m 1,4 km/h (1 Bft) W 270 14,3 C 21,9 C
20.10.2012 16:31 21,9 C 62 % 1018,2 hPa 0,0 l/m 0,0 km/h (0 Bft) W 270 14,3 C 21,9 C
20.10.2012 16:36 21,9 C 62 % 1018,3 hPa 0,0 l/m 0,0 km/h (0 Bft) W 270 14,3 C 21,9 C
20.10.2012 16:41 21,9 C 62 % 1018,4 hPa 0,0 l/m 0,0 km/h (0 Bft) W 270 14,3 C 21,9 C
20.10.2012 16:46 21,8 C 63 % 1018,4 hPa 0,0 l/m 0,0 km/h (0 Bft) W 270 14,4 C 21,8 C
20.10.2012 16:51 21,7 C 63 % 1018,3 hPa 0,0 l/m 0,0 km/h (0 Bft) W 270 14,3 C 21,7 C
20.10.2012 16:56 21,6 C 63 % 1018,4 hPa 0,0 l/m 0,0 km/h (0 Bft) W 270 14,2 C 21,6 C
20.10.2012 17:01 21,5 C 64 % 1018,3 hPa 0,0 l/m 0,0 km/h (0 Bft) W 270 14,4 C 21,5 C
20.10.2012 17:06 21,4 C 64 % 1018,4 hPa 0,0 l/m 1,4 km/h (1 Bft) W 270 14,3 C 21,4 C
20.10.2012 17:11 21,3 C 65 % 1018,4 hPa 0,0 l/m 0,0 km/h (0 Bft) W 270 14,4 C 21,3 C
20.10.2012 17:16 21,1 C 65 % 1018,5 hPa 0,0 l/m 0,0 km/h (0 Bft) W 270 14,3 C 21,1 C
20.10.2012 17:21 20,9 C 66 % 1018,6 hPa 0,0 l/m 0,0 km/h (0 Bft) W 270 14,3 C 20,9 C
20.10.2012 17:26 20,6 C 66 % 1018,5 hPa 0,0 l/m 0,0 km/h (0 Bft) W 270 14,0 C 20,6 C
20.10.2012 17:31 20,3 C 68 % 1018,4 hPa 0,0 l/m 0,0 km/h (0 Bft) W 270 14,2 C 20,3 C
20.10.2012 17:36 20,1 C 68 % 1018,5 hPa 0,0 l/m 0,0 km/h (0 Bft) W 270 14,0 C 20,1 C
20.10.2012 17:41 19,8 C 69 % 1018,5 hPa 0,0 l/m 0,0 km/h (0 Bft) W 270 13,9 C 19,8 C
20.10.2012 17:46 19,5 C 69 % 1018,5 hPa 0,0 l/m 0,0 km/h (0 Bft) W 270 13,7 C 19,5 C
20.10.2012 17:51 19,2 C 70 % 1018,5 hPa 0,0 l/m 0,0 km/h (0 Bft) W 270 13,6 C 19,2 C
20.10.2012 17:56 18,9 C 71 % 1018,6 hPa 0,0 l/m 0,0 km/h (0 Bft) W 270 13,5 C 18,9 C
20.10.2012 18:01 18,6 C 72 % 1018,6 hPa 0,0 l/m 0,0 km/h (0 Bft) W 270 13,4 C 18,6 C
20.10.2012 18:06 18,3 C 73 % 1018,8 hPa 0,0 l/m 0,0 km/h (0 Bft) W 270 13,4 C 18,3 C
20.10.2012 18:11 18,1 C 73 % 1018,9 hPa 0,0 l/m 0,0 km/h (0 Bft) W 270 13,2 C 18,1 C
20.10.2012 18:16 17,8 C 74 % 1019,0 hPa 0,0 l/m 0,0 km/h (0 Bft) W 270 13,1 C 17,8 C
20.10.2012 18:21 17,6 C 75 % 1019,1 hPa 0,0 l/m 0,0 km/h (0 Bft) W 270 13,1 C 17,6 C
20.10.2012 18:26 17,3 C 76 % 1019,0 hPa 0,0 l/m 0,0 km/h (0 Bft) W 270 13,0 C 17,3 C
20.10.2012 18:31 17,1 C 77 % 1019,0 hPa 0,0 l/m 0,0 km/h (0 Bft) W 270 13,0 C 17,1 C
20.10.2012 18:36 16,9 C 78 % 1019,0 hPa 0,0 l/m 0,0 km/h (0 Bft) W 270 13,0 C 16,9 C
20.10.2012 18:41 16,8 C 78 % 1019,0 hPa 0,0 l/m 0,0 km/h (0 Bft) W 270 12,9 C 16,8 C
20.10.2012 18:46 16,6 C 79 % 1018,9 hPa 0,0 l/m 0,0 km/h (0 Bft) W 270 12,9 C 16,6 C
20.10.2012 18:51 16,4 C 79 % 1019,2 hPa 0,0 l/m 0,0 km/h (0 Bft) W 270 12,7 C 16,4 C
20.10.2012 18:56 16,3 C 80 % 1018,9 hPa 0,0 l/m 0,0 km/h (0 Bft) W 270 12,8 C 16,3 C
20.10.2012 19:01 16,1 C 81 % 1019,0 hPa 0,0 l/m 0,0 km/h (0 Bft) W 270 12,8 C 16,1 C
20.10.2012 19:06 15,9 C 81 % 1019,1 hPa 0,0 l/m 0,0 km/h (0 Bft) W 270 12,6 C 15,9 C
20.10.2012 19:11 15,9 C 80 % 1019,2 hPa 0,0 l/m 0,0 km/h (0 Bft) S-SW 202 12,5 C 15,9 C
20.10.2012 19:16 15,7 C 81 % 1019,2 hPa 0,0 l/m 0,0 km/h (0 Bft) S-SW 202 12,4 C 15,7 C
20.10.2012 19:21 15,6 C 81 % 1019,2 hPa 0,0 l/m 0,0 km/h (0 Bft) S-SW 202 12,3 C 15,6 C
20.10.2012 19:26 15,5 C 82 % 1019,2 hPa 0,0 l/m 0,0 km/h (0 Bft) S-SW 202 12,4 C 15,5 C
20.10.2012 19:31 15,4 C 82 % 1019,1 hPa 0,0 l/m 0,0 km/h (0 Bft) S-SW 202 12,3 C 15,4 C
20.10.2012 19:36 15,3 C 82 % 1019,1 hPa 0,0 l/m 0,0 km/h (0 Bft) S-SO 157 12,2 C 15,3 C
20.10.2012 19:41 15,2 C 83 % 1019,1 hPa 0,0 l/m 0,0 km/h (0 Bft) S-SO 157 12,3 C 15,2 C
20.10.2012 19:46 15,2 C 84 % 1019,1 hPa 0,0 l/m 0,0 km/h (0 Bft) N-NW 337 12,5 C 15,2 C
20.10.2012 19:51 14,9 C 83 % 1019,1 hPa 0,0 l/m 0,0 km/h (0 Bft) N-NW 337 12,0 C 14,9 C
20.10.2012 19:56 14,9 C 83 % 1019,2 hPa 0,0 l/m 0,0 km/h (0 Bft) N-NW 337 12,0 C 14,9 C
20.10.2012 20:01 14,9 C 83 % 1019,2 hPa 0,0 l/m 0,0 km/h (0 Bft) N-NW 337 12,0 C 14,9 C
20.10.2012 20:06 14,8 C 84 % 1019,2 hPa 0,0 l/m 0,0 km/h (0 Bft) N-NW 337 12,1 C 14,8 C
20.10.2012 20:11 14,7 C 84 % 1019,3 hPa 0,0 l/m 0,0 km/h (0 Bft) N-NW 337 12,0 C 14,7 C
20.10.2012 20:16 14,6 C 85 % 1019,2 hPa 0,0 l/m 0,0 km/h (0 Bft) N-NW 337 12,1 C 14,6 C
20.10.2012 20:21 14,5 C 85 % 1019,2 hPa 0,0 l/m 0,0 km/h (0 Bft) N-NW 337 12,0 C 14,5 C
20.10.2012 20:26 14,4 C 85 % 1019,2 hPa 0,0 l/m 0,0 km/h (0 Bft) N-NW 337 11,9 C 14,4 C
20.10.2012 20:31 14,4 C 85 % 1019,1 hPa 0,0 l/m 0,0 km/h (0 Bft) N-NW 337 11,9 C 14,4 C
20.10.2012 20:36 14,3 C 85 % 1019,1 hPa 0,0 l/m 0,0 km/h (0 Bft) N-NW 337 11,8 C 14,3 C
20.10.2012 20:41 14,2 C 85 % 1019,2 hPa 0,0 l/m 0,0 km/h (0 Bft) N-NW 337 11,7 C 14,2 C
20.10.2012 20:46 14,1 C 86 % 1019,2 hPa 0,0 l/m 0,0 km/h (0 Bft) N-NW 337 11,8 C 14,1 C
20.10.2012 20:51 14,1 C 86 % 1019,2 hPa 0,0 l/m 0,0 km/h (0 Bft) N-NW 337 11,8 C 14,1 C
20.10.2012 20:56 13,9 C 86 % 1019,2 hPa 0,0 l/m 1,4 km/h (1 Bft) N-NW 337 11,6 C 13,9 C
20.10.2012 21:01 13,9 C 86 % 1019,3 hPa 0,0 l/m 0,0 km/h (0 Bft) N-NW 337 11,6 C 13,9 C
20.10.2012 21:06 13,9 C 86 % 1019,3 hPa 0,0 l/m 0,0 km/h (0 Bft) N-NW 337 11,6 C 13,9 C
20.10.2012 21:11 13,8 C 86 % 1019,4 hPa 0,0 l/m 0,0 km/h (0 Bft) N-NW 337 11,5 C 13,8 C
20.10.2012 21:16 13,6 C 86 % 1019,3 hPa 0,0 l/m 1,1 km/h (1 Bft) N-NW 337 11,3 C 13,6 C
20.10.2012 21:21 13,6 C 86 % 1019,4 hPa 0,0 l/m 0,0 km/h (0 Bft) N-NW 337 11,3 C 13,6 C
20.10.2012 21:26 13,5 C 86 % 1019,4 hPa 0,0 l/m 0,0 km/h (0 Bft) N-NW 337 11,2 C 13,5 C
20.10.2012 21:31 13,4 C 87 % 1019,4 hPa 0,0 l/m 0,0 km/h (0 Bft) N-NW 337 11,3 C 13,4 C
20.10.2012 21:36 13,4 C 87 % 1019,4 hPa 0,0 l/m 0,0 km/h (0 Bft) N-NW 337 11,3 C 13,4 C
20.10.2012 21:41 13,4 C 87 % 1019,3 hPa 0,0 l/m 0,0 km/h (0 Bft) N-NW 337 11,3 C 13,4 C
20.10.2012 21:46 13,3 C 87 % 1019,3 hPa 0,0 l/m 0,0 km/h (0 Bft) N-NW 337 11,2 C 13,3 C
20.10.2012 21:51 13,2 C 87 % 1019,3 hPa 0,0 l/m 0,0 km/h (0 Bft) N-NW 337 11,1 C 13,2 C
20.10.2012 21:56 13,2 C 87 % 1019,5 hPa 0,0 l/m 0,0 km/h (0 Bft) N-NW 337 11,1 C 13,2 C
20.10.2012 22:01 13,1 C 87 % 1019,5 hPa 0,0 l/m 0,0 km/h (0 Bft) N-NW 337 11,0 C 13,1 C
20.10.2012 22:06 13,1 C 87 % 1019,5 hPa 0,0 l/m 0,0 km/h (0 Bft) N-NW 337 11,0 C 13,1 C
20.10.2012 22:11 13,0 C 87 % 1019,6 hPa 0,0 l/m 0,0 km/h (0 Bft) N-NW 337 10,9 C 13,0 C
20.10.2012 22:16 13,0 C 88 % 1019,5 hPa 0,0 l/m 0,0 km/h (0 Bft) N-NW 337 11,1 C 13,0 C
20.10.2012 22:21 12,9 C 88 % 1019,5 hPa 0,0 l/m 0,0 km/h (0 Bft) N-NW 337 11,0 C 12,9 C
20.10.2012 22:26 12,9 C 88 % 1019,5 hPa 0,0 l/m 0,0 km/h (0 Bft) N-NW 337 11,0 C 12,9 C
20.10.2012 22:31 12,9 C 88 % 1019,4 hPa 0,0 l/m 0,0 km/h (0 Bft) N-NW 337 11,0 C 12,9 C
20.10.2012 22:36 12,9 C 88 % 1019,6 hPa 0,0 l/m 0,0 km/h (0 Bft) N-NW 337 11,0 C 12,9 C
20.10.2012 22:41 12,8 C 88 % 1019,6 hPa 0,0 l/m 0,0 km/h (0 Bft) N-NW 337 10,9 C 12,8 C
20.10.2012 22:46 12,8 C 89 % 1019,6 hPa 0,0 l/m 0,0 km/h (0 Bft) N-NW 337 11,0 C 12,8 C
20.10.2012 22:51 12,8 C 89 % 1019,6 hPa 0,0 l/m 0,0 km/h (0 Bft) N-NW 337 11,0 C 12,8 C
20.10.2012 22:56 12,8 C 89 % 1019,5 hPa 0,0 l/m 0,0 km/h (0 Bft) N-NW 337 11,0 C 12,8 C
20.10.2012 23:01 12,7 C 89 % 1019,6 hPa 0,0 l/m 0,0 km/h (0 Bft) N-NW 337 10,9 C 12,7 C
20.10.2012 23:06 12,6 C 89 % 1019,6 hPa 0,0 l/m 0,0 km/h (0 Bft) N-NW 337 10,8 C 12,6 C
20.10.2012 23:11 12,6 C 89 % 1019,6 hPa 0,0 l/m 0,0 km/h (0 Bft) N-NW 337 10,8 C 12,6 C
20.10.2012 23:16 12,5 C 89 % 1019,6 hPa 0,0 l/m 0,0 km/h (0 Bft) N-NW 337 10,7 C 12,5 C
20.10.2012 23:21 12,4 C 89 % 1019,5 hPa 0,0 l/m 0,0 km/h (0 Bft) N-NW 337 10,6 C 12,4 C
20.10.2012 23:26 12,4 C 89 % 1019,4 hPa 0,0 l/m 0,0 km/h (0 Bft) N-NW 337 10,6 C 12,4 C
20.10.2012 23:31 12,4 C 89 % 1019,4 hPa 0,0 l/m 0,0 km/h (0 Bft) N-NW 337 10,6 C 12,4 C
20.10.2012 23:36 12,3 C 89 % 1019,5 hPa 0,0 l/m 0,0 km/h (0 Bft) N-NW 337 10,5 C 12,3 C
20.10.2012 23:41 12,2 C 89 % 1019,4 hPa 0,0 l/m 0,0 km/h (0 Bft) N-NW 337 10,4 C 12,2 C
20.10.2012 23:46 12,2 C 89 % 1019,3 hPa 0,0 l/m 0,0 km/h (0 Bft) N-NW 337 10,4 C 12,2 C
20.10.2012 23:51 12,1 C 89 % 1019,2 hPa 0,0 l/m 0,0 km/h (0 Bft) N-NW 337 10,3 C 12,1 C
20.10.2012 23:56 12,1 C 89 % 1019,2 hPa 0,0 l/m 0,0 km/h (0 Bft) N-NW 337 10,3 C 12,1 C
_ Min-Zeit 07:51 15:26 00:01 - 00:06 - - 07:51 07:51
Minimum _ 8,4 C 60 % 1015,4 hPa - 0,0 km/h (0 Bft) - - 7,2 C 8,4 C
_ Max-Zeit 15:51 08:41 22:11 00:01 11:56 - - 15:51 15:51
Maximum _ 22,4 C 93 % 1019,6 hPa 0,0 l/m 10,1 km/h
S-SW (2 Bft)
- - 14,5 C 22,4 C
Durchschnitt _ 14,0 C 83 % 1017,7 hPa #0,0 l/m 1,3 km/h (1 Bft) SO - 10,9 C 14,0 C
(c) by David Heller